sensor_id;sensor_type;location;lat;lon;timestamp;pressure;altitude;pressure_sealevel;temperature;humidity
49055;BME280;35405;52.344;14.530;2024-02-15T00:01:03;101188.13;;;9.68;85.66
49055;BME280;35405;52.344;14.530;2024-02-15T00:03:29;101192.50;;;9.66;85.67
49055;BME280;35405;52.344;14.530;2024-02-15T00:05:54;101189.06;;;9.59;85.60
49055;BME280;35405;52.344;14.530;2024-02-15T00:08:19;101189.88;;;9.64;85.99
49055;BME280;35405;52.344;14.530;2024-02-15T00:10:46;101192.50;;;9.66;85.69
49055;BME280;35405;52.344;14.530;2024-02-15T00:13:11;101191.66;;;9.61;85.78
49055;BME280;35405;52.344;14.530;2024-02-15T00:15:36;101186.38;;;9.64;85.76
49055;BME280;35405;52.344;14.530;2024-02-15T00:18:02;101183.78;;;9.64;86.13
49055;BME280;35405;52.344;14.530;2024-02-15T00:20:28;101193.34;;;9.68;86.18
49055;BME280;35405;52.344;14.530;2024-02-15T00:22:53;101190.72;;;9.68;85.89
49055;BME280;35405;52.344;14.530;2024-02-15T00:25:20;101182.00;;;9.69;86.00
49055;BME280;35405;52.344;14.530;2024-02-15T00:27:46;101175.97;;;9.61;86.00
49055;BME280;35405;52.344;14.530;2024-02-15T00:30:11;101184.66;;;9.66;85.85
49055;BME280;35405;52.344;14.530;2024-02-15T00:32:36;101181.13;;;9.69;86.13
49055;BME280;35405;52.344;14.530;2024-02-15T00:35:02;101181.13;;;9.69;85.79
49055;BME280;35405;52.344;14.530;2024-02-15T00:37:27;101181.13;;;9.69;86.13
49055;BME280;35405;52.344;14.530;2024-02-15T00:39:52;101188.06;;;9.74;85.79
49055;BME280;35405;52.344;14.530;2024-02-15T00:42:17;101182.84;;;9.71;85.85
49055;BME280;35405;52.344;14.530;2024-02-15T00:44:43;101188.91;;;9.78;86.00
49055;BME280;35405;52.344;14.530;2024-02-15T00:47:09;101182.00;;;9.71;86.04
49055;BME280;35405;52.344;14.530;2024-02-15T00:49:35;101191.63;;;9.64;85.75
49055;BME280;35405;52.344;14.530;2024-02-15T00:52:01;101189.03;;;9.62;86.35
49055;BME280;35405;52.344;14.530;2024-02-15T00:54:26;101191.63;;;9.67;86.30
49055;BME280;35405;52.344;14.530;2024-02-15T00:56:51;101189.84;;;9.69;86.45
49055;BME280;35405;52.344;14.530;2024-02-15T00:59:16;101196.72;;;9.79;86.35
49055;BME280;35405;52.344;14.530;2024-02-15T01:01:41;101194.09;;;9.82;86.49
49055;BME280;35405;52.344;14.530;2024-02-15T01:04:07;101191.53;;;9.76;86.25
49055;BME280;35405;52.344;14.530;2024-02-15T01:06:32;101198.50;;;9.80;86.46
49055;BME280;35405;52.344;14.530;2024-02-15T01:08:57;101188.00;;;9.83;86.18
49055;BME280;35405;52.344;14.530;2024-02-15T01:11:23;101192.34;;;9.84;86.50
49055;BME280;35405;52.344;14.530;2024-02-15T01:13:49;101193.19;;;9.86;86.29
49055;BME280;35405;52.344;14.530;2024-02-15T01:16:14;101194.06;;;9.85;86.45
49055;BME280;35405;52.344;14.530;2024-02-15T01:18:40;101187.09;;;9.87;86.10
49055;BME280;35405;52.344;14.530;2024-02-15T01:21:05;101189.75;;;9.81;86.35
49055;BME280;35405;52.344;14.530;2024-02-15T01:23:31;101186.28;;;9.82;86.34
49055;BME280;35405;52.344;14.530;2024-02-15T01:25:56;101185.41;;;9.80;86.64
49055;BME280;35405;52.344;14.530;2024-02-15T01:28:22;101176.69;;;9.81;86.36
49055;BME280;35405;52.344;14.530;2024-02-15T01:30:48;101182.81;;;9.77;86.57
49055;BME280;35405;52.344;14.530;2024-02-15T01:33:13;101176.72;;;9.80;86.39
49055;BME280;35405;52.344;14.530;2024-02-15T01:35:38;101172.34;;;9.82;86.21
49055;BME280;35405;52.344;14.530;2024-02-15T01:38:04;101173.16;;;9.85;86.46
49055;BME280;35405;52.344;14.530;2024-02-15T01:40:29;101169.63;;;9.91;85.99
49055;BME280;35405;52.344;14.530;2024-02-15T01:42:54;101181.88;;;9.86;85.88
49055;BME280;35405;52.344;14.530;2024-02-15T01:45:20;101174.03;;;9.86;86.46
49055;BME280;35405;52.344;14.530;2024-02-15T01:47:46;101179.31;;;9.81;86.41
49055;BME280;35405;52.344;14.530;2024-02-15T01:50:12;101168.91;;;9.75;86.29
49055;BME280;35405;52.344;14.530;2024-02-15T01:52:38;101164.56;;;9.73;86.32
49055;BME280;35405;52.344;14.530;2024-02-15T01:55:04;101160.25;;;9.69;86.64
49055;BME280;35405;52.344;14.530;2024-02-15T01:57:33;101161.13;;;9.66;86.38
49055;BME280;35405;52.344;14.530;2024-02-15T01:59:58;101161.94;;;9.71;86.82
49055;BME280;35405;52.344;14.530;2024-02-15T02:02:23;101156.72;;;9.71;86.47
49055;BME280;35405;52.344;14.530;2024-02-15T02:04:51;101154.09;;;9.76;86.38
49055;BME280;35405;52.344;14.530;2024-02-15T02:07:16;101153.28;;;9.68;86.48
49055;BME280;35405;52.344;14.530;2024-02-15T02:09:41;101145.53;;;9.58;86.49
49055;BME280;35405;52.344;14.530;2024-02-15T02:12:07;101159.44;;;9.60;86.76
49055;BME280;35405;52.344;14.530;2024-02-15T02:14:32;101142.03;;;9.59;86.86
49055;BME280;35405;52.344;14.530;2024-02-15T02:17:10;101147.19;;;9.64;86.84
49055;BME280;35405;52.344;14.530;2024-02-15T02:19:35;101144.63;;;9.61;86.74
49055;BME280;35405;52.344;14.530;2024-02-15T02:22:03;101148.13;;;9.57;87.08
49055;BME280;35405;52.344;14.530;2024-02-15T02:24:30;101150.69;;;9.64;87.29
49055;BME280;35405;52.344;14.530;2024-02-15T02:27:03;101158.44;;;9.72;87.01
49055;BME280;35405;52.344;14.530;2024-02-15T02:29:28;101149.78;;;9.70;87.04
49055;BME280;35405;52.344;14.530;2024-02-15T02:31:55;101157.59;;;9.73;86.85
49055;BME280;35405;52.344;14.530;2024-02-15T02:34:21;101157.53;;;9.79;87.23
49055;BME280;35405;52.344;14.530;2024-02-15T02:36:46;101154.03;;;9.82;87.28
49055;BME280;35405;52.344;14.530;2024-02-15T02:39:13;101171.47;;;9.81;87.03
49055;BME280;35405;52.344;14.530;2024-02-15T02:41:38;101164.47;;;9.83;86.85
49055;BME280;35405;52.344;14.530;2024-02-15T02:44:03;101160.94;;;9.89;86.81
49055;BME280;35405;52.344;14.530;2024-02-15T02:46:28;101163.50;;;9.94;86.88
49055;BME280;35405;52.344;14.530;2024-02-15T02:48:53;101163.47;;;10.00;86.40
49055;BME280;35405;52.344;14.530;2024-02-15T02:51:19;101158.22;;;10.03;86.72
49055;BME280;35405;52.344;14.530;2024-02-15T02:53:44;101158.13;;;10.12;86.50
49055;BME280;35405;52.344;14.530;2024-02-15T02:56:09;101161.59;;;10.14;86.15
49055;BME280;35405;52.344;14.530;2024-02-15T02:58:34;101159.00;;;10.12;86.40
49055;BME280;35405;52.344;14.530;2024-02-15T03:01:00;101170.31;;;10.16;86.35
49055;BME280;35405;52.344;14.530;2024-02-15T03:03:26;101159.91;;;10.10;86.15
49055;BME280;35405;52.344;14.530;2024-02-15T03:05:51;101164.25;;;10.11;86.12
49055;BME280;35405;52.344;14.530;2024-02-15T03:08:16;101155.50;;;10.13;86.91
49055;BME280;35405;52.344;14.530;2024-02-15T03:10:45;101156.41;;;10.11;86.06
49055;BME280;35405;52.344;14.530;2024-02-15T03:13:10;101153.75;;;10.12;86.18
49055;BME280;35405;52.344;14.530;2024-02-15T03:15:36;101153.00;;;10.00;85.85
49055;BME280;35405;52.344;14.530;2024-02-15T03:18:02;101159.03;;;10.06;86.12
49055;BME280;35405;52.344;14.530;2024-02-15T03:20:32;101165.22;;;10.01;86.30
49055;BME280;35405;52.344;14.530;2024-02-15T03:22:57;101160.00;;;9.98;86.19
49055;BME280;35405;52.344;14.530;2024-02-15T03:25:23;101163.47;;;10.00;86.83
49055;BME280;35405;52.344;14.530;2024-02-15T03:27:55;101162.66;;;9.91;85.94
49055;BME280;35405;52.344;14.530;2024-02-15T03:30:20;101167.97;;;9.84;86.42
49055;BME280;35405;52.344;14.530;2024-02-15T03:32:46;101168.00;;;9.78;86.68
49055;BME280;35405;52.344;14.530;2024-02-15T03:35:13;101162.78;;;9.76;86.66
49055;BME280;35405;52.344;14.530;2024-02-15T03:37:39;101170.59;;;9.79;86.75
49055;BME280;35405;52.344;14.530;2024-02-15T03:40:05;101166.28;;;9.75;86.80
49055;BME280;35405;52.344;14.530;2024-02-15T03:42:30;101167.16;;;9.76;86.71
49055;BME280;35405;52.344;14.530;2024-02-15T03:44:55;101161.13;;;9.68;86.94
49055;BME280;35405;52.344;14.530;2024-02-15T03:47:21;101173.31;;;9.69;87.19
49055;BME280;35405;52.344;14.530;2024-02-15T03:49:46;101170.66;;;9.70;87.22
49055;BME280;35405;52.344;14.530;2024-02-15T03:52:11;101168.91;;;9.72;87.20
49055;BME280;35405;52.344;14.530;2024-02-15T03:54:36;101170.66;;;9.73;87.19
49055;BME280;35405;52.344;14.530;2024-02-15T03:57:02;101173.19;;;9.82;87.55
49055;BME280;35405;52.344;14.530;2024-02-15T03:59:27;101171.41;;;9.89;87.66
49055;BME280;35405;52.344;14.530;2024-02-15T04:01:53;101168.72;;;9.98;87.29
49055;BME280;35405;52.344;14.530;2024-02-15T04:04:18;101173.91;;;10.03;87.47
49055;BME280;35405;52.344;14.530;2024-02-15T04:06:46;101171.25;;;10.09;86.87
49055;BME280;35405;52.344;14.530;2024-02-15T04:09:11;101162.44;;;10.17;86.97
49055;BME280;35405;52.344;14.530;2024-02-15T04:11:36;101164.16;;;10.20;87.19
49055;BME280;35405;52.344;14.530;2024-02-15T04:14:03;101163.31;;;10.18;86.31
49055;BME280;35405;52.344;14.530;2024-02-15T04:16:28;101158.09;;;10.13;86.68
49055;BME280;35405;52.344;14.530;2024-02-15T04:18:55;101166.84;;;10.12;86.96
49055;BME280;35405;52.344;14.530;2024-02-15T04:21:22;101160.72;;;10.13;86.88
49055;BME280;35405;52.344;14.530;2024-02-15T04:23:47;101155.47;;;10.16;86.79
49055;BME280;35405;52.344;14.530;2024-02-15T04:26:13;101155.56;;;10.06;86.57
49055;BME280;35405;52.344;14.530;2024-02-15T04:28:39;101159.06;;;10.08;87.18
49055;BME280;35405;52.344;14.530;2024-02-15T04:31:04;101162.50;;;10.10;87.28
49055;BME280;35405;52.344;14.530;2024-02-15T04:33:30;101159.00;;;10.12;87.35
49055;BME280;35405;52.344;14.530;2024-02-15T04:35:55;101164.28;;;10.08;87.64
49055;BME280;35405;52.344;14.530;2024-02-15T04:38:21;101167.75;;;10.07;87.33
49055;BME280;35405;52.344;14.530;2024-02-15T04:40:46;101165.97;;;10.12;87.36
49055;BME280;35405;52.344;14.530;2024-02-15T04:43:12;101167.72;;;10.13;87.65
49055;BME280;35405;52.344;14.530;2024-02-15T04:45:37;101170.31;;;10.16;87.75
49055;BME280;35405;52.344;14.530;2024-02-15T04:48:03;101171.13;;;10.24;87.43
49055;BME280;35405;52.344;14.530;2024-02-15T04:50:29;101164.09;;;10.28;87.73
49055;BME280;35405;52.344;14.530;2024-02-15T04:52:54;101166.72;;;10.28;87.47
49055;BME280;35405;52.344;14.530;2024-02-15T04:55:19;101160.56;;;10.36;87.11
49055;BME280;35405;52.344;14.530;2024-02-15T04:57:45;101171.88;;;10.38;87.43
49055;BME280;35405;52.344;14.530;2024-02-15T05:00:14;101171.00;;;10.38;87.32
49055;BME280;35405;52.344;14.530;2024-02-15T05:02:40;101169.28;;;10.37;87.31
49055;BME280;35405;52.344;14.530;2024-02-15T05:05:08;101167.56;;;10.31;87.69
49055;BME280;35405;52.344;14.530;2024-02-15T05:07:34;101160.59;;;10.32;87.36
49055;BME280;35405;52.344;14.530;2024-02-15T05:10:02;101156.22;;;10.32;86.94
49055;BME280;35405;52.344;14.530;2024-02-15T05:12:31;101160.56;;;10.33;87.75
49055;BME280;35405;52.344;14.530;2024-02-15T05:14:56;101162.31;;;10.34;87.78
49055;BME280;35405;52.344;14.530;2024-02-15T05:17:21;101164.00;;;10.38;87.71
49055;BME280;35405;52.344;14.530;2024-02-15T05:19:47;101163.97;;;10.43;87.08
49055;BME280;35405;52.344;14.530;2024-02-15T05:22:13;101162.28;;;10.36;87.06
49055;BME280;35405;52.344;14.530;2024-02-15T05:24:38;101161.41;;;10.35;87.60
49055;BME280;35405;52.344;14.530;2024-02-15T05:27:04;101161.50;;;10.26;87.17
49055;BME280;35405;52.344;14.530;2024-02-15T05:29:29;101165.84;;;10.27;87.98
49055;BME280;35405;52.344;14.530;2024-02-15T05:31:58;101165.91;;;10.18;87.92
49055;BME280;35405;52.344;14.530;2024-02-15T05:34:24;101168.47;;;10.27;88.25
49055;BME280;35405;52.344;14.530;2024-02-15T05:36:49;101167.56;;;10.31;88.17
49055;BME280;35405;52.344;14.530;2024-02-15T05:39:14;101164.09;;;10.31;88.10
49055;BME280;35405;52.344;14.530;2024-02-15T05:41:39;101164.09;;;10.28;87.76
49055;BME280;35405;52.344;14.530;2024-02-15T05:44:05;101161.41;;;10.38;87.58
49055;BME280;35405;52.344;14.530;2024-02-15T05:46:31;101163.09;;;10.42;87.67
49055;BME280;35405;52.344;14.530;2024-02-15T05:48:56;101166.63;;;10.38;87.82
49055;BME280;35405;52.344;14.530;2024-02-15T05:51:22;101164.88;;;10.39;87.79
49055;BME280;35405;52.344;14.530;2024-02-15T05:53:47;101169.25;;;10.38;87.14
49055;BME280;35405;52.344;14.530;2024-02-15T05:56:14;101163.16;;;10.36;87.87
49055;BME280;35405;52.344;14.530;2024-02-15T05:58:39;101164.91;;;10.34;87.45
49055;BME280;35405;52.344;14.530;2024-02-15T06:01:05;101174.53;;;10.32;88.13
49055;BME280;35405;52.344;14.530;2024-02-15T06:03:32;101178.88;;;10.36;88.04
49055;BME280;35405;52.344;14.530;2024-02-15T06:06:01;101179.75;;;10.32;87.89
49055;BME280;35405;52.344;14.530;2024-02-15T06:08:31;101185.91;;;10.30;88.22
49055;BME280;35405;52.344;14.530;2024-02-15T06:10:56;101183.31;;;10.27;88.16
49055;BME280;35405;52.344;14.530;2024-02-15T06:13:21;101179.81;;;10.22;88.01
49055;BME280;35405;52.344;14.530;2024-02-15T06:15:47;101184.28;;;10.15;88.61
49055;BME280;35405;52.344;14.530;2024-02-15T06:18:17;101189.53;;;10.10;88.22
49055;BME280;35405;52.344;14.530;2024-02-15T06:20:46;101178.94;;;10.21;88.89
49055;BME280;35405;52.344;14.530;2024-02-15T06:23:14;101188.50;;;10.28;88.44
49055;BME280;35405;52.344;14.530;2024-02-15T06:25:39;101193.66;;;10.36;88.25
49055;BME280;35405;52.344;14.530;2024-02-15T06:28:05;101200.66;;;10.35;88.07
49055;BME280;35405;52.344;14.530;2024-02-15T06:30:39;101190.19;;;10.37;87.95
49055;BME280;35405;52.344;14.530;2024-02-15T06:33:22;101191.03;;;10.36;88.29
49055;BME280;35405;52.344;14.530;2024-02-15T06:36:06;101197.91;;;10.48;88.14
49055;BME280;35405;52.344;14.530;2024-02-15T06:38:50;101193.59;;;10.42;88.20
49055;BME280;35405;52.344;14.530;2024-02-15T06:41:34;101186.66;;;10.39;88.61
49055;BME280;35405;52.344;14.530;2024-02-15T06:43:59;101185.78;;;10.40;88.66
49055;BME280;35405;52.344;14.530;2024-02-15T06:46:25;101188.38;;;10.43;88.56
49055;BME280;35405;52.344;14.530;2024-02-15T06:48:50;101196.19;;;10.47;88.44
49055;BME280;35405;52.344;14.530;2024-02-15T06:51:15;101197.03;;;10.49;88.62
49055;BME280;35405;52.344;14.530;2024-02-15T06:53:41;101199.66;;;10.50;88.79
49055;BME280;35405;52.344;14.530;2024-02-15T06:56:09;101197.03;;;10.52;88.83
49055;BME280;35405;52.344;14.530;2024-02-15T06:58:35;101206.56;;;10.56;88.19
49055;BME280;35405;52.344;14.530;2024-02-15T07:01:00;101208.25;;;10.61;88.79
49055;BME280;35405;52.344;14.530;2024-02-15T07:03:27;101216.97;;;10.62;88.55
49055;BME280;35405;52.344;14.530;2024-02-15T07:05:54;101211.78;;;10.59;88.82
49055;BME280;35405;52.344;14.530;2024-02-15T07:08:19;101219.59;;;10.60;88.89
49055;BME280;35405;52.344;14.530;2024-02-15T07:10:45;101222.16;;;10.63;88.66
49055;BME280;35405;52.344;14.530;2024-02-15T07:13:10;101206.38;;;10.74;88.46
49055;BME280;35405;52.344;14.530;2024-02-15T07:15:35;101219.47;;;10.74;88.67
49055;BME280;35405;52.344;14.530;2024-02-15T07:18:03;101209.72;;;10.85;88.60
49055;BME280;35405;52.344;14.530;2024-02-15T07:20:31;101211.41;;;10.92;88.29
49055;BME280;35405;52.344;14.530;2024-02-15T07:22:56;101211.31;;;10.98;88.51
49055;BME280;35405;52.344;14.530;2024-02-15T07:25:23;101216.53;;;11.02;88.04
49055;BME280;35405;52.344;14.530;2024-02-15T07:27:48;101219.03;;;11.11;88.06
49055;BME280;35405;52.344;14.530;2024-02-15T07:30:13;101226.00;;;11.10;87.85
49055;BME280;35405;52.344;14.530;2024-02-15T07:32:39;101213.88;;;11.03;87.94
49055;BME280;35405;52.344;14.530;2024-02-15T07:35:05;101218.22;;;11.07;88.21
49055;BME280;35405;52.344;14.530;2024-02-15T07:37:32;101228.59;;;11.15;87.83
49055;BME280;35405;52.344;14.530;2024-02-15T07:39:58;101218.19;;;11.09;88.11
49055;BME280;35405;52.344;14.530;2024-02-15T07:42:24;101226.94;;;11.08;87.92
49055;BME280;35405;52.344;14.530;2024-02-15T07:44:50;101230.34;;;11.13;88.30
49055;BME280;35405;52.344;14.530;2024-02-15T07:47:15;101219.06;;;11.08;88.47
49055;BME280;35405;52.344;14.530;2024-02-15T07:49:45;101222.47;;;11.16;88.88
49055;BME280;35405;52.344;14.530;2024-02-15T07:52:10;101222.44;;;11.17;87.90
49055;BME280;35405;52.344;14.530;2024-02-15T07:54:35;101218.06;;;11.18;88.34
49055;BME280;35405;52.344;14.530;2024-02-15T07:57:00;101231.13;;;11.22;88.27
49055;BME280;35405;52.344;14.530;2024-02-15T07:59:25;101225.72;;;11.33;88.39
49055;BME280;35405;52.344;14.530;2024-02-15T08:01:51;101219.66;;;11.30;88.08
49055;BME280;35405;52.344;14.530;2024-02-15T08:04:19;101229.19;;;11.34;88.00
49055;BME280;35405;52.344;14.530;2024-02-15T08:06:45;101221.28;;;11.38;88.51
49055;BME280;35405;52.344;14.530;2024-02-15T08:09:11;101222.09;;;11.43;88.28
49055;BME280;35405;52.344;14.530;2024-02-15T08:11:39;101221.03;;;11.58;89.21
49055;BME280;35405;52.344;14.530;2024-02-15T08:14:05;101219.00;;;11.75;88.56
49055;BME280;35405;52.344;14.530;2024-02-15T08:16:33;101220.56;;;11.90;88.29
49055;BME280;35405;52.344;14.530;2024-02-15T08:18:59;101219.63;;;11.94;87.96
49055;BME280;35405;52.344;14.530;2024-02-15T08:21:26;101217.13;;;11.87;87.44
49055;BME280;35405;52.344;14.530;2024-02-15T08:23:52;101212.88;;;11.76;87.14
49055;BME280;35405;52.344;14.530;2024-02-15T08:26:17;101212.97;;;11.72;87.52
49055;BME280;35405;52.344;14.530;2024-02-15T08:28:42;101209.59;;;11.64;87.53
49055;BME280;35405;52.344;14.530;2024-02-15T08:31:07;101211.28;;;11.66;88.05
49055;BME280;35405;52.344;14.530;2024-02-15T08:33:34;101214.84;;;11.64;88.49
49055;BME280;35405;52.344;14.530;2024-02-15T08:36:00;101217.41;;;11.67;88.29
49055;BME280;35405;52.344;14.530;2024-02-15T08:38:27;101217.41;;;11.67;87.93
49055;BME280;35405;52.344;14.530;2024-02-15T08:40:52;101218.06;;;11.82;89.05
49055;BME280;35405;52.344;14.530;2024-02-15T08:43:18;101218.66;;;12.01;88.72
49055;BME280;35405;52.344;14.530;2024-02-15T08:45:43;101223.47;;;12.26;89.38
49055;BME280;35405;52.344;14.530;2024-02-15T08:48:09;101220.66;;;12.38;88.86
49055;BME280;35405;52.344;14.530;2024-02-15T08:50:34;101219.81;;;12.36;87.69
49055;BME280;35405;52.344;14.530;2024-02-15T08:52:59;101220.91;;;12.23;87.09
49055;BME280;35405;52.344;14.530;2024-02-15T08:55:25;101224.69;;;12.06;87.11
49055;BME280;35405;52.344;14.530;2024-02-15T08:57:52;101224.88;;;11.94;87.53
49055;BME280;35405;52.344;14.530;2024-02-15T09:00:18;101222.41;;;11.85;88.23
49055;BME280;35405;52.344;14.530;2024-02-15T09:02:43;101224.28;;;11.74;87.84
49055;BME280;35405;52.344;14.530;2024-02-15T09:05:09;101228.81;;;11.64;88.08
49055;BME280;35405;52.344;14.530;2024-02-15T09:07:34;101227.94;;;11.64;88.47
49055;BME280;35405;52.344;14.530;2024-02-15T09:10:01;101235.69;;;11.71;88.98
49055;BME280;35405;52.344;14.530;2024-02-15T09:12:26;101232.13;;;11.75;89.26
49055;BME280;35405;52.344;14.530;2024-02-15T09:14:52;101226.81;;;11.81;89.15
49055;BME280;35405;52.344;14.530;2024-02-15T09:17:17;101230.34;;;11.77;88.49
49055;BME280;35405;52.344;14.530;2024-02-15T09:19:42;101228.44;;;11.90;88.45
49055;BME280;35405;52.344;14.530;2024-02-15T09:22:08;101234.47;;;11.95;88.97
49055;BME280;35405;52.344;14.530;2024-02-15T09:24:33;101231.88;;;11.94;88.88
49055;BME280;35405;52.344;14.530;2024-02-15T09:27:02;101234.50;;;11.94;88.66
49055;BME280;35405;52.344;14.530;2024-02-15T09:29:30;101235.06;;;12.14;89.20
49055;BME280;35405;52.344;14.530;2024-02-15T09:31:57;101234.13;;;12.17;88.82
49055;BME280;35405;52.344;14.530;2024-02-15T09:34:23;101233.25;;;12.16;87.58
49055;BME280;35405;52.344;14.530;2024-02-15T09:36:48;101228.06;;;12.15;88.69
49055;BME280;35405;52.344;14.530;2024-02-15T09:39:13;101235.88;;;12.16;88.36
49055;BME280;35405;52.344;14.530;2024-02-15T09:41:39;101232.38;;;12.17;88.58
49055;BME280;35405;52.344;14.530;2024-02-15T09:44:04;101227.09;;;12.19;88.58
49055;BME280;35405;52.344;14.530;2024-02-15T09:46:30;101236.63;;;12.24;88.42
49055;BME280;35405;52.344;14.530;2024-02-15T09:49:00;101237.38;;;12.31;88.57
49055;BME280;35405;52.344;14.530;2024-02-15T09:51:28;101225.81;;;12.43;88.15
49055;BME280;35405;52.344;14.530;2024-02-15T09:53:56;101226.22;;;12.68;88.28
49055;BME280;35405;52.344;14.530;2024-02-15T09:56:21;101231.22;;;12.83;87.13
49055;BME280;35405;52.344;14.530;2024-02-15T09:58:49;101232.91;;;12.85;87.40
49055;BME280;35405;52.344;14.530;2024-02-15T10:01:15;101233.53;;;12.98;87.90
49055;BME280;35405;52.344;14.530;2024-02-15T10:03:41;101233.25;;;13.10;87.63
49055;BME280;35405;52.344;14.530;2024-02-15T10:06:07;101226.25;;;13.12;87.43
49055;BME280;35405;52.344;14.530;2024-02-15T10:08:32;101234.16;;;13.09;87.18
49055;BME280;35405;52.344;14.530;2024-02-15T10:11:09;101237.56;;;13.14;87.06
49055;BME280;35405;52.344;14.530;2024-02-15T10:13:35;101238.44;;;13.15;87.07
49055;BME280;35405;52.344;14.530;2024-02-15T10:16:19;101227.88;;;13.16;87.14
49055;BME280;35405;52.344;14.530;2024-02-15T10:18:49;101230.56;;;13.15;87.46
49055;BME280;35405;52.344;14.530;2024-02-15T10:21:26;101233.22;;;13.13;87.08
49055;BME280;35405;52.344;14.530;2024-02-15T10:24:06;101231.28;;;13.23;87.96
49055;BME280;35405;52.344;14.530;2024-02-15T10:26:33;101229.56;;;13.22;87.30
49055;BME280;35405;52.344;14.530;2024-02-15T10:29:09;101233.50;;;13.43;87.54
49055;BME280;35405;52.344;14.530;2024-02-15T10:31:35;101228.72;;;13.62;87.72
49055;BME280;35405;52.344;14.530;2024-02-15T10:34:04;101231.75;;;13.82;87.18
49055;BME280;35405;52.344;14.530;2024-02-15T10:36:30;101233.94;;;14.00;86.70
49055;BME280;35405;52.344;14.530;2024-02-15T10:39:14;101228.41;;;14.11;86.16
49055;BME280;35405;52.344;14.530;2024-02-15T10:41:51;101227.56;;;14.11;85.50
49055;BME280;35405;52.344;14.530;2024-02-15T10:44:21;101233.41;;;13.86;85.65
49055;BME280;35405;52.344;14.530;2024-02-15T10:46:47;101237.09;;;13.78;85.64
49055;BME280;35405;52.344;14.530;2024-02-15T10:49:23;101242.38;;;13.78;85.99
49055;BME280;35405;52.344;14.530;2024-02-15T10:51:52;101236.88;;;13.87;85.75
49055;BME280;35405;52.344;14.530;2024-02-15T10:54:33;101235.03;;;13.92;85.81
49055;BME280;35405;52.344;14.530;2024-02-15T10:57:03;101234.94;;;13.95;85.29
49055;BME280;35405;52.344;14.530;2024-02-15T10:59:31;101228.78;;;13.96;85.25
49055;BME280;35405;52.344;14.530;2024-02-15T11:01:58;101226.25;;;13.91;84.79
49055;BME280;35405;52.344;14.530;2024-02-15T11:04:24;101228.03;;;13.91;85.13
49055;BME280;35405;52.344;14.530;2024-02-15T11:06:52;101229.13;;;13.82;84.17
49055;BME280;35405;52.344;14.530;2024-02-15T11:09:20;101233.06;;;13.63;84.07
49055;BME280;35405;52.344;14.530;2024-02-15T11:11:47;101229.19;;;13.40;84.95
49055;BME280;35405;52.344;14.530;2024-02-15T11:14:28;101234.31;;;13.45;85.79
49055;BME280;35405;52.344;14.530;2024-02-15T11:17:00;101236.66;;;13.60;85.63
49055;BME280;35405;52.344;14.530;2024-02-15T11:22:07;101223.00;;;13.82;84.92
49055;BME280;35405;52.344;14.530;2024-02-15T11:24:34;101221.16;;;13.85;84.23
49055;BME280;35405;52.344;14.530;2024-02-15T11:27:03;101226.44;;;13.84;84.16
49055;BME280;35405;52.344;14.530;2024-02-15T11:29:51;101220.16;;;13.91;84.88
49055;BME280;35405;52.344;14.530;2024-02-15T11:40:23;101223.28;;;13.69;84.92
49055;BME280;35405;52.344;14.530;2024-02-15T11:43:06;101219.97;;;13.61;84.80
49055;BME280;35405;52.344;14.530;2024-02-15T11:45:33;101223.63;;;13.53;84.20
49055;BME280;35405;52.344;14.530;2024-02-15T11:48:02;101214.88;;;13.54;85.39
49055;BME280;35405;52.344;14.530;2024-02-15T11:50:27;101212.97;;;13.60;85.02
49055;BME280;35405;52.344;14.530;2024-02-15T11:52:55;101207.63;;;13.63;84.69
49055;BME280;35405;52.344;14.530;2024-02-15T11:55:30;101203.88;;;13.73;85.06
49055;BME280;35405;52.344;14.530;2024-02-15T11:57:59;101205.03;;;13.99;85.44
49055;BME280;35405;52.344;14.530;2024-02-15T12:00:29;101196.75;;;14.14;84.75
49055;BME280;35405;52.344;14.530;2024-02-15T12:03:14;101198.25;;;14.24;84.64
49055;BME280;35405;52.344;14.530;2024-02-15T12:05:58;101196.28;;;14.33;84.89
49055;BME280;35405;52.344;14.530;2024-02-15T12:08:45;101195.19;;;14.41;84.24
49055;BME280;35405;52.344;14.530;2024-02-15T12:11:29;101189.84;;;14.46;84.46
49055;BME280;35405;52.344;14.530;2024-02-15T12:14:14;101187.59;;;14.63;84.24
49055;BME280;35405;52.344;14.530;2024-02-15T12:16:59;101192.75;;;14.68;84.27
49055;BME280;35405;52.344;14.530;2024-02-15T12:19:42;101188.19;;;14.73;83.13
49055;BME280;35405;52.344;14.530;2024-02-15T12:22:08;101187.00;;;14.84;84.01
49055;BME280;35405;52.344;14.530;2024-02-15T12:24:34;101181.91;;;15.08;84.06
49055;BME280;35405;52.344;14.530;2024-02-15T12:27:00;101184.59;;;15.06;83.29
49055;BME280;35405;52.344;14.530;2024-02-15T12:29:28;101179.09;;;15.16;83.00
49055;BME280;35405;52.344;14.530;2024-02-15T12:31:54;101173.81;;;15.16;82.20
49055;BME280;35405;52.344;14.530;2024-02-15T12:34:20;101180.31;;;15.04;82.07
49055;BME280;35405;52.344;14.530;2024-02-15T12:36:45;101168.56;;;14.84;82.00
49055;BME280;35405;52.344;14.530;2024-02-15T12:39:10;101165.63;;;14.64;82.27
49055;BME280;35405;52.344;14.530;2024-02-15T12:41:47;101164.91;;;14.59;82.33
49055;BME280;35405;52.344;14.530;2024-02-15T12:44:15;101163.91;;;14.63;82.81
49055;BME280;35405;52.344;14.530;2024-02-15T12:46:41;101169.75;;;14.73;82.62
49055;BME280;35405;52.344;14.530;2024-02-15T12:49:28;101164.50;;;14.73;82.04
49055;BME280;35405;52.344;14.530;2024-02-15T12:51:53;101162.53;;;14.81;82.48
49055;BME280;35405;52.344;14.530;2024-02-15T12:54:22;101157.00;;;14.90;82.12